LSGG/GVA METAR and TAF weather

Enter ICAO airport designator
Station Type Date Time Source
LSGG METAR 2019/04/25 18:20 UTC NOAA

LSGG 251820Z 24012KT 9999 -RA FEW035 SCT060 BKN080 14/09 Q1008 NOSIG


Station Type Date Time Source
LSGG Decoded METAR 2019/04/25 18:20 UTC NOAA

Geneve-Cointrin, Switzerland (LSGG) 46-15N 006-08E 416M
Apr 25, 2019 - 02:20 PM EDT / 2019.04.25 1820 UTC
Wind: from the WSW (240 degrees) at 14 MPH (12 KT):0
Visibility: greater than 7 mile(s):0
Sky conditions: mostly cloudy
Weather: light rain
Temperature: 57 F (14 C)
Dew Point: 48 F (9 C)
Relative Humidity: 71%
Pressure (altimeter): 29.77 in. Hg (1008 hPa)
ob: LSGG 251820Z 24012KT 9999 -RA FEW035 SCT060 BKN080 14/09 Q1008 NOSIG
cycle: 18

Station Type Date Time Source
LSGG TAF 2019/04/25 18:37 UTC NOAA

TAF LSGG 251725Z 2518/2624 25010KT 9999 FEW050 SCT070 BKN090 TX14/2615Z TN05/2605Z
TEMPO 2520/2602 4500 RA
TEMPO 2612/2618 SHRA SCT050TCU

Example: see airport list